Mossel Bay, South Africa

5:02 AM SAST on September 04, 2015 (GMT +0200)
IWESTERN176 | | Change Station
CLOSE
Current Station
Personal Weather Station
Location: George, WESTERN CAPE
Elevation: 784 ft
Nearby Weather Stations

Elev 784 ft 33.96 °S, 22.47 °E | Updated 1 minute ago

Clear
Clear
47.5 °F
Feels Like 48 °F
N
1.3
Wind Variable Wind from ESE
Gusts 1.6 mph

Today
High -- | Low -- °F
--% Chance of Precip.
Yesterday
High -- | Low -- °F
Precip. -- in
6:46 AM 6:15 PM
Waning Gibbous, 64% visible
Pressure 30.39 in
Visibility -9999.0 miles
Clouds
Windchill 48 °F
Dew Point 43 °F
Humidity 83%
Rainfall 0.00 in
Snow Depth Not available.
UV Not available.
Pollen Not available.
Air Quality Not available.
Flu Activity Not available.
METAR FAGG 040200Z AUTO 06004KT 020V090 CAVOK 09/06 Q1029
Pressure 30.39 in
Visibility -9999.0 miles
Clouds
Windchill 48 °F
Dew Point 43 °F
Humidity 83%
Rainfall 0.00 in
Snow Depth Not available.
UV Not available.
Pollen Not available.
Air Quality Not available.
Flu Activity Not available.
METAR FAGG 040200Z AUTO 06004KT 020V090 CAVOK 09/06 Q1029

10-Day Weather Forecast

×

Almanac

Astronomy

Sep. 04, 2015 Rise Set
Actual Time
Civil Twilight
Nautical Twilight
Astronomical Twilight
Moon
Length of Visible Light
Length of Day
Tomorrow will be .
, % of the Moon is Illuminated

Today's Extremes

Country Highs Country Lows

Community

WunderPhotos

Upload Photos

1,852,108 photos uploaded!

WunderBlogs® & News

Nearby

Air Quality

  Air Quality AQ Index Pollutant
Not available.

Snow Depth

Station Depth Elevation

Earthquake Activity

City Distance Mag. Time & Date
Minimum magnitude displayed is 2.5.

Coastal Water Temperatures

Place Temperature

Stations

Nearby Weather Stations

Station Location Temp. Windchill Dew Point Humidity Wind Precip. Elev Updated Type